Yong'An, China
Current Conditions -  °F | °C
As of 1:00 AM on Wednesday 28 Jan 2015 (Local Time) from ZSAM Reporting Station
Broken Clouds Broken Clouds  
Wind Chill: 55°   Ceiling: 3300
Heat Index: 55°   Visibility: 6mi
Dew Point: 48°   Wind: 18mph
Humidity: 77%   Direction: 60°ENE
Pressure: 30.12"   Gusts: NA
Location:  25.97°N, 117.35°E
Report Text: ZSAM 271700Z 06008MPS 9999 BKN033 BKN060 13/09 Q1020 NOSIG
Loading
Personal Weather Stations






























Interactive Weather Map New forecast layout! Learn more

10-Day Weather Forecast

Advertisements
Track Severe Weather on mobile